sensor_id;sensor_type;location;lat;lon;timestamp;P1;durP1;ratioP1;P2;durP2;ratioP2
80647;SDS011;70012;0.000;0.000;2023-10-09T00:02:08;7.18;;;4.35;;
80647;SDS011;70012;0.000;0.000;2023-10-09T00:04:36;8.90;;;3.90;;
80647;SDS011;70012;0.000;0.000;2023-10-09T00:07:03;8.25;;;5.20;;
80647;SDS011;70012;0.000;0.000;2023-10-09T00:09:34;10.57;;;4.32;;
80647;SDS011;70012;0.000;0.000;2023-10-09T00:12:16;8.10;;;4.30;;
80647;SDS011;70012;0.000;0.000;2023-10-09T00:14:49;9.48;;;4.45;;
80647;SDS011;70012;0.000;0.000;2023-10-09T00:17:17;9.07;;;4.65;;
80647;SDS011;70012;0.000;0.000;2023-10-09T00:19:48;9.48;;;4.65;;
80647;SDS011;70012;0.000;0.000;2023-10-09T00:22:16;8.35;;;4.53;;
80647;SDS011;70012;0.000;0.000;2023-10-09T00:24:57;11.20;;;5.35;;
80647;SDS011;70012;0.000;0.000;2023-10-09T00:27:47;8.50;;;4.32;;
80647;SDS011;70012;0.000;0.000;2023-10-09T00:30:15;9.95;;;5.00;;
80647;SDS011;70012;0.000;0.000;2023-10-09T00:32:45;10.60;;;4.55;;
80647;SDS011;70012;0.000;0.000;2023-10-09T00:35:26;9.63;;;5.10;;
80647;SDS011;70012;0.000;0.000;2023-10-09T00:38:04;8.68;;;4.28;;
80647;SDS011;70012;0.000;0.000;2023-10-09T00:40:42;8.07;;;4.35;;
80647;SDS011;70012;0.000;0.000;2023-10-09T00:43:22;9.13;;;4.82;;
80647;SDS011;70012;0.000;0.000;2023-10-09T00:45:59;10.27;;;5.28;;
80647;SDS011;70012;0.000;0.000;2023-10-09T00:48:38;7.05;;;3.85;;
80647;SDS011;70012;0.000;0.000;2023-10-09T00:51:07;8.23;;;4.05;;
80647;SDS011;70012;0.000;0.000;2023-10-09T00:53:47;8.98;;;4.57;;
80647;SDS011;70012;0.000;0.000;2023-10-09T00:56:21;12.07;;;5.53;;
80647;SDS011;70012;0.000;0.000;2023-10-09T00:58:58;8.77;;;4.50;;
80647;SDS011;70012;0.000;0.000;2023-10-09T01:01:33;8.43;;;4.40;;
80647;SDS011;70012;0.000;0.000;2023-10-09T01:04:18;6.30;;;3.80;;
80647;SDS011;70012;0.000;0.000;2023-10-09T01:06:46;8.50;;;4.45;;
80647;SDS011;70012;0.000;0.000;2023-10-09T01:09:19;9.43;;;4.50;;
80647;SDS011;70012;0.000;0.000;2023-10-09T01:11:47;8.23;;;4.63;;
80647;SDS011;70012;0.000;0.000;2023-10-09T01:14:40;8.88;;;4.10;;
80647;SDS011;70012;0.000;0.000;2023-10-09T01:17:09;8.13;;;4.68;;
80647;SDS011;70012;0.000;0.000;2023-10-09T01:19:37;10.05;;;4.78;;
80647;SDS011;70012;0.000;0.000;2023-10-09T01:22:04;8.88;;;4.50;;
80647;SDS011;70012;0.000;0.000;2023-10-09T01:24:39;9.52;;;4.20;;
80647;SDS011;70012;0.000;0.000;2023-10-09T01:27:06;9.52;;;5.18;;
80647;SDS011;70012;0.000;0.000;2023-10-09T01:29:42;7.88;;;4.70;;
80647;SDS011;70012;0.000;0.000;2023-10-09T01:32:10;11.50;;;4.53;;
80647;SDS011;70012;0.000;0.000;2023-10-09T01:34:43;10.45;;;5.15;;
80647;SDS011;70012;0.000;0.000;2023-10-09T01:37:14;8.70;;;4.53;;
80647;SDS011;70012;0.000;0.000;2023-10-09T01:40:03;9.70;;;4.40;;
80647;SDS011;70012;0.000;0.000;2023-10-09T01:43:02;8.18;;;3.72;;
80647;SDS011;70012;0.000;0.000;2023-10-09T01:45:30;9.18;;;4.40;;
80647;SDS011;70012;0.000;0.000;2023-10-09T01:48:08;6.97;;;3.83;;
80647;SDS011;70012;0.000;0.000;2023-10-09T01:50:35;8.27;;;4.07;;
80647;SDS011;70012;0.000;0.000;2023-10-09T01:53:03;7.47;;;4.20;;
80647;SDS011;70012;0.000;0.000;2023-10-09T01:55:32;9.13;;;4.25;;
80647;SDS011;70012;0.000;0.000;2023-10-09T01:58:06;7.72;;;4.10;;
80647;SDS011;70012;0.000;0.000;2023-10-09T02:00:43;6.03;;;3.55;;
80647;SDS011;70012;0.000;0.000;2023-10-09T02:03:16;7.82;;;4.18;;
80647;SDS011;70012;0.000;0.000;2023-10-09T02:05:43;7.40;;;3.85;;
80647;SDS011;70012;0.000;0.000;2023-10-09T02:08:09;8.10;;;4.13;;
80647;SDS011;70012;0.000;0.000;2023-10-09T02:10:37;7.13;;;3.80;;
80647;SDS011;70012;0.000;0.000;2023-10-09T02:13:10;7.30;;;3.90;;
80647;SDS011;70012;0.000;0.000;2023-10-09T02:15:38;7.35;;;3.63;;
80647;SDS011;70012;0.000;0.000;2023-10-09T02:18:13;6.57;;;3.50;;
80647;SDS011;70012;0.000;0.000;2023-10-09T02:20:53;8.95;;;4.53;;
80647;SDS011;70012;0.000;0.000;2023-10-09T02:23:40;6.65;;;4.65;;
80647;SDS011;70012;0.000;0.000;2023-10-09T02:26:18;9.65;;;4.65;;
80647;SDS011;70012;0.000;0.000;2023-10-09T02:28:57;10.43;;;4.35;;
80647;SDS011;70012;0.000;0.000;2023-10-09T02:31:31;8.85;;;4.65;;
80647;SDS011;70012;0.000;0.000;2023-10-09T02:34:07;6.28;;;3.55;;
80647;SDS011;70012;0.000;0.000;2023-10-09T02:36:38;9.05;;;4.38;;
80647;SDS011;70012;0.000;0.000;2023-10-09T02:39:08;7.75;;;4.03;;
80647;SDS011;70012;0.000;0.000;2023-10-09T02:41:50;10.63;;;4.85;;
80647;SDS011;70012;0.000;0.000;2023-10-09T02:44:46;8.57;;;4.28;;
80647;SDS011;70012;0.000;0.000;2023-10-09T02:47:16;10.30;;;4.45;;
80647;SDS011;70012;0.000;0.000;2023-10-09T02:49:50;10.35;;;5.00;;
80647;SDS011;70012;0.000;0.000;2023-10-09T02:52:17;7.40;;;4.38;;
80647;SDS011;70012;0.000;0.000;2023-10-09T02:54:51;7.68;;;3.85;;
80647;SDS011;70012;0.000;0.000;2023-10-09T02:57:26;8.60;;;3.72;;
80647;SDS011;70012;0.000;0.000;2023-10-09T03:00:03;8.98;;;4.40;;
80647;SDS011;70012;0.000;0.000;2023-10-09T03:02:35;8.20;;;4.10;;
80647;SDS011;70012;0.000;0.000;2023-10-09T03:05:07;9.48;;;3.95;;
80647;SDS011;70012;0.000;0.000;2023-10-09T03:07:38;7.43;;;3.50;;
80647;SDS011;70012;0.000;0.000;2023-10-09T03:10:06;8.43;;;4.05;;
80647;SDS011;70012;0.000;0.000;2023-10-09T03:12:36;7.53;;;4.28;;
80647;SDS011;70012;0.000;0.000;2023-10-09T03:15:03;9.38;;;4.45;;
80647;SDS011;70012;0.000;0.000;2023-10-09T03:17:34;9.30;;;4.18;;
80647;SDS011;70012;0.000;0.000;2023-10-09T03:20:04;7.80;;;4.38;;
80647;SDS011;70012;0.000;0.000;2023-10-09T03:22:39;6.05;;;4.00;;
80647;SDS011;70012;0.000;0.000;2023-10-09T03:25:06;7.57;;;3.72;;
80647;SDS011;70012;0.000;0.000;2023-10-09T03:27:46;7.65;;;4.15;;
80647;SDS011;70012;0.000;0.000;2023-10-09T03:30:16;8.07;;;3.70;;
80647;SDS011;70012;0.000;0.000;2023-10-09T03:32:50;6.22;;;3.78;;
80647;SDS011;70012;0.000;0.000;2023-10-09T03:35:18;8.10;;;3.45;;
80647;SDS011;70012;0.000;0.000;2023-10-09T03:37:51;7.68;;;3.75;;
80647;SDS011;70012;0.000;0.000;2023-10-09T03:40:19;5.82;;;3.35;;
80647;SDS011;70012;0.000;0.000;2023-10-09T03:42:46;6.82;;;3.58;;
80647;SDS011;70012;0.000;0.000;2023-10-09T03:45:12;7.00;;;3.67;;
80647;SDS011;70012;0.000;0.000;2023-10-09T03:47:44;6.00;;;3.75;;
80647;SDS011;70012;0.000;0.000;2023-10-09T03:50:14;9.35;;;4.55;;
80647;SDS011;70012;0.000;0.000;2023-10-09T03:52:55;9.65;;;4.10;;
80647;SDS011;70012;0.000;0.000;2023-10-09T03:55:22;6.25;;;3.60;;
80647;SDS011;70012;0.000;0.000;2023-10-09T03:57:55;7.03;;;3.58;;
80647;SDS011;70012;0.000;0.000;2023-10-09T04:00:24;7.93;;;3.70;;
80647;SDS011;70012;0.000;0.000;2023-10-09T04:02:57;8.25;;;4.00;;
80647;SDS011;70012;0.000;0.000;2023-10-09T04:05:25;7.43;;;3.85;;
80647;SDS011;70012;0.000;0.000;2023-10-09T04:07:53;5.65;;;3.35;;
80647;SDS011;70012;0.000;0.000;2023-10-09T04:10:21;8.05;;;3.90;;
80647;SDS011;70012;0.000;0.000;2023-10-09T04:13:10;7.53;;;3.75;;
80647;SDS011;70012;0.000;0.000;2023-10-09T04:15:39;6.70;;;3.95;;
80647;SDS011;70012;0.000;0.000;2023-10-09T04:18:09;7.55;;;3.92;;
80647;SDS011;70012;0.000;0.000;2023-10-09T04:23:37;7.78;;;4.28;;
80647;SDS011;70012;0.000;0.000;2023-10-09T04:26:22;8.00;;;4.00;;
80647;SDS011;70012;0.000;0.000;2023-10-09T04:28:55;10.27;;;4.20;;
80647;SDS011;70012;0.000;0.000;2023-10-09T04:31:21;8.10;;;4.15;;
80647;SDS011;70012;0.000;0.000;2023-10-09T04:33:58;9.25;;;4.72;;
80647;SDS011;70012;0.000;0.000;2023-10-09T04:36:43;9.65;;;4.63;;
80647;SDS011;70012;0.000;0.000;2023-10-09T04:39:13;9.10;;;4.07;;
80647;SDS011;70012;0.000;0.000;2023-10-09T04:41:40;7.90;;;4.30;;
80647;SDS011;70012;0.000;0.000;2023-10-09T04:44:09;6.53;;;4.00;;
80647;SDS011;70012;0.000;0.000;2023-10-09T04:46:50;6.43;;;3.95;;
80647;SDS011;70012;0.000;0.000;2023-10-09T04:49:40;8.57;;;4.53;;
80647;SDS011;70012;0.000;0.000;2023-10-09T04:52:28;7.43;;;4.53;;
80647;SDS011;70012;0.000;0.000;2023-10-09T04:54:58;9.65;;;4.40;;
80647;SDS011;70012;0.000;0.000;2023-10-09T05:00:14;8.95;;;4.32;;
80647;SDS011;70012;0.000;0.000;2023-10-09T05:02:54;7.97;;;4.10;;
80647;SDS011;70012;0.000;0.000;2023-10-09T05:05:23;7.60;;;3.85;;
80647;SDS011;70012;0.000;0.000;2023-10-09T05:08:08;8.65;;;4.45;;
80647;SDS011;70012;0.000;0.000;2023-10-09T05:10:58;11.38;;;4.05;;
80647;SDS011;70012;0.000;0.000;2023-10-09T05:18:45;7.82;;;4.15;;
80647;SDS011;70012;0.000;0.000;2023-10-09T05:21:23;11.05;;;4.15;;
80647;SDS011;70012;0.000;0.000;2023-10-09T05:23:59;7.85;;;3.92;;
80647;SDS011;70012;0.000;0.000;2023-10-09T05:26:43;9.50;;;4.13;;
80647;SDS011;70012;0.000;0.000;2023-10-09T05:32:00;8.70;;;4.25;;
80647;SDS011;70012;0.000;0.000;2023-10-09T05:34:42;8.88;;;3.75;;
80647;SDS011;70012;0.000;0.000;2023-10-09T05:37:26;6.97;;;3.95;;
80647;SDS011;70012;0.000;0.000;2023-10-09T05:40:04;7.20;;;4.10;;
80647;SDS011;70012;0.000;0.000;2023-10-09T05:42:49;9.82;;;4.07;;
80647;SDS011;70012;0.000;0.000;2023-10-09T05:45:26;7.60;;;3.92;;
80647;SDS011;70012;0.000;0.000;2023-10-09T05:48:16;8.00;;;4.15;;
80647;SDS011;70012;0.000;0.000;2023-10-09T05:50:43;8.23;;;4.30;;
80647;SDS011;70012;0.000;0.000;2023-10-09T05:53:28;12.88;;;3.83;;
80647;SDS011;70012;0.000;0.000;2023-10-09T05:56:21;6.38;;;3.80;;
80647;SDS011;70012;0.000;0.000;2023-10-09T05:59:06;7.82;;;3.78;;
80647;SDS011;70012;0.000;0.000;2023-10-09T06:01:51;9.20;;;4.20;;
80647;SDS011;70012;0.000;0.000;2023-10-09T06:04:36;8.25;;;3.83;;
80647;SDS011;70012;0.000;0.000;2023-10-09T06:07:21;8.27;;;3.55;;
80647;SDS011;70012;0.000;0.000;2023-10-09T06:10:07;8.95;;;4.00;;
80647;SDS011;70012;0.000;0.000;2023-10-09T06:12:44;8.73;;;4.68;;
80647;SDS011;70012;0.000;0.000;2023-10-09T06:15:14;8.57;;;4.43;;
80647;SDS011;70012;0.000;0.000;2023-10-09T06:18:10;12.15;;;4.40;;
80647;SDS011;70012;0.000;0.000;2023-10-09T06:20:52;8.32;;;4.20;;
80647;SDS011;70012;0.000;0.000;2023-10-09T06:23:31;10.68;;;4.68;;
80647;SDS011;70012;0.000;0.000;2023-10-09T06:26:16;7.82;;;3.85;;
80647;SDS011;70012;0.000;0.000;2023-10-09T06:28:52;8.38;;;4.20;;
80647;SDS011;70012;0.000;0.000;2023-10-09T06:31:39;7.00;;;3.65;;
80647;SDS011;70012;0.000;0.000;2023-10-09T06:34:28;7.68;;;4.10;;
80647;SDS011;70012;0.000;0.000;2023-10-09T06:37:02;7.35;;;3.67;;
80647;SDS011;70012;0.000;0.000;2023-10-09T06:39:47;11.23;;;3.78;;
80647;SDS011;70012;0.000;0.000;2023-10-09T06:42:17;8.20;;;3.78;;
80647;SDS011;70012;0.000;0.000;2023-10-09T06:45:13;7.93;;;4.00;;
80647;SDS011;70012;0.000;0.000;2023-10-09T06:47:40;7.28;;;4.00;;
80647;SDS011;70012;0.000;0.000;2023-10-09T06:52:48;9.10;;;4.05;;
80647;SDS011;70012;0.000;0.000;2023-10-09T06:55:24;7.72;;;3.78;;
80647;SDS011;70012;0.000;0.000;2023-10-09T06:58:03;6.93;;;3.80;;
80647;SDS011;70012;0.000;0.000;2023-10-09T07:00:39;7.72;;;4.30;;
80647;SDS011;70012;0.000;0.000;2023-10-09T07:03:24;7.70;;;4.22;;
80647;SDS011;70012;0.000;0.000;2023-10-09T07:06:06;10.27;;;4.65;;
80647;SDS011;70012;0.000;0.000;2023-10-09T07:08:51;8.05;;;4.43;;
80647;SDS011;70012;0.000;0.000;2023-10-09T07:11:42;10.93;;;4.60;;
80647;SDS011;70012;0.000;0.000;2023-10-09T07:14:15;8.25;;;4.53;;
80647;SDS011;70012;0.000;0.000;2023-10-09T07:17:02;7.85;;;4.07;;
80647;SDS011;70012;0.000;0.000;2023-10-09T07:19:31;8.57;;;4.25;;
80647;SDS011;70012;0.000;0.000;2023-10-09T07:22:01;9.68;;;4.47;;
80647;SDS011;70012;0.000;0.000;2023-10-09T07:24:30;9.55;;;4.32;;
80647;SDS011;70012;0.000;0.000;2023-10-09T07:27:10;6.88;;;4.30;;
80647;SDS011;70012;0.000;0.000;2023-10-09T07:29:40;8.65;;;4.25;;
80647;SDS011;70012;0.000;0.000;2023-10-09T07:32:16;7.03;;;4.22;;
80647;SDS011;70012;0.000;0.000;2023-10-09T07:34:49;9.15;;;4.53;;
80647;SDS011;70012;0.000;0.000;2023-10-09T07:37:22;6.72;;;4.32;;
80647;SDS011;70012;0.000;0.000;2023-10-09T07:39:50;9.20;;;4.15;;
80647;SDS011;70012;0.000;0.000;2023-10-09T07:42:27;8.70;;;4.18;;
80647;SDS011;70012;0.000;0.000;2023-10-09T07:45:10;207.43;;;186.65;;
80647;SDS011;70012;0.000;0.000;2023-10-09T07:47:46;86.38;;;77.63;;
80647;SDS011;70012;0.000;0.000;2023-10-09T07:50:29;23.85;;;21.25;;
80647;SDS011;70012;0.000;0.000;2023-10-09T07:53:09;24.17;;;18.52;;
80647;SDS011;70012;0.000;0.000;2023-10-09T07:56:03;17.25;;;13.73;;
80647;SDS011;70012;0.000;0.000;2023-10-09T07:58:33;11.07;;;7.88;;
80647;SDS011;70012;0.000;0.000;2023-10-09T08:01:14;11.45;;;7.40;;
80647;SDS011;70012;0.000;0.000;2023-10-09T08:04:01;9.25;;;5.03;;
80647;SDS011;70012;0.000;0.000;2023-10-09T08:06:37;10.10;;;5.10;;
80647;SDS011;70012;0.000;0.000;2023-10-09T08:09:05;10.05;;;5.90;;
80647;SDS011;70012;0.000;0.000;2023-10-09T08:11:47;12.05;;;4.75;;
80647;SDS011;70012;0.000;0.000;2023-10-09T08:14:43;12.95;;;4.60;;
80647;SDS011;70012;0.000;0.000;2023-10-09T08:17:12;8.45;;;4.13;;
80647;SDS011;70012;0.000;0.000;2023-10-09T08:19:48;7.82;;;4.07;;
80647;SDS011;70012;0.000;0.000;2023-10-09T08:22:28;9.38;;;4.15;;
80647;SDS011;70012;0.000;0.000;2023-10-09T08:24:56;9.40;;;4.75;;
80647;SDS011;70012;0.000;0.000;2023-10-09T08:29:57;9.75;;;3.97;;
80647;SDS011;70012;0.000;0.000;2023-10-09T08:32:43;7.10;;;3.72;;
80647;SDS011;70012;0.000;0.000;2023-10-09T08:35:30;7.10;;;3.72;;
80647;SDS011;70012;0.000;0.000;2023-10-09T08:38:00;9.57;;;4.32;;
80647;SDS011;70012;0.000;0.000;2023-10-09T08:40:38;7.10;;;3.97;;
80647;SDS011;70012;0.000;0.000;2023-10-09T08:45:41;6.95;;;3.70;;
80647;SDS011;70012;0.000;0.000;2023-10-09T08:48:12;5.93;;;4.03;;
80647;SDS011;70012;0.000;0.000;2023-10-09T08:50:42;10.60;;;4.13;;
80647;SDS011;70012;0.000;0.000;2023-10-09T08:53:11;9.00;;;4.55;;
80647;SDS011;70012;0.000;0.000;2023-10-09T08:55:39;9.13;;;4.75;;
80647;SDS011;70012;0.000;0.000;2023-10-09T08:58:06;8.57;;;4.10;;
80647;SDS011;70012;0.000;0.000;2023-10-09T09:00:43;7.78;;;4.00;;
80647;SDS011;70012;0.000;0.000;2023-10-09T09:03:15;10.20;;;4.07;;
80647;SDS011;70012;0.000;0.000;2023-10-09T09:05:47;10.48;;;4.10;;
80647;SDS011;70012;0.000;0.000;2023-10-09T09:08:24;6.85;;;3.65;;
80647;SDS011;70012;0.000;0.000;2023-10-09T09:13:45;9.35;;;4.40;;
80647;SDS011;70012;0.000;0.000;2023-10-09T09:16:20;8.73;;;4.03;;
80647;SDS011;70012;0.000;0.000;2023-10-09T09:21:30;13.68;;;4.07;;
80647;SDS011;70012;0.000;0.000;2023-10-09T09:24:05;9.48;;;4.32;;
80647;SDS011;70012;0.000;0.000;2023-10-09T09:27:05;8.98;;;3.60;;
80647;SDS011;70012;0.000;0.000;2023-10-09T09:29:57;8.38;;;4.55;;
80647;SDS011;70012;0.000;0.000;2023-10-09T09:32:33;7.88;;;3.88;;
80647;SDS011;70012;0.000;0.000;2023-10-09T09:35:03;8.43;;;3.88;;
80647;SDS011;70012;0.000;0.000;2023-10-09T09:37:33;8.52;;;4.03;;
80647;SDS011;70012;0.000;0.000;2023-10-09T09:40:09;9.27;;;4.22;;
80647;SDS011;70012;0.000;0.000;2023-10-09T09:43:07;8.77;;;4.40;;
80647;SDS011;70012;0.000;0.000;2023-10-09T09:45:48;8.07;;;4.55;;
80647;SDS011;70012;0.000;0.000;2023-10-09T09:48:17;9.70;;;4.43;;
80647;SDS011;70012;0.000;0.000;2023-10-09T09:50:43;10.93;;;4.25;;
80647;SDS011;70012;0.000;0.000;2023-10-09T09:53:14;7.40;;;4.22;;
80647;SDS011;70012;0.000;0.000;2023-10-09T09:55:52;7.40;;;3.58;;
80647;SDS011;70012;0.000;0.000;2023-10-09T09:58:25;6.53;;;3.78;;
80647;SDS011;70012;0.000;0.000;2023-10-09T10:01:09;7.82;;;3.83;;
80647;SDS011;70012;0.000;0.000;2023-10-09T10:03:56;10.13;;;3.95;;
80647;SDS011;70012;0.000;0.000;2023-10-09T10:06:27;6.25;;;3.55;;
80647;SDS011;70012;0.000;0.000;2023-10-09T10:08:55;6.05;;;3.28;;
80647;SDS011;70012;0.000;0.000;2023-10-09T10:11:40;6.38;;;3.17;;
80647;SDS011;70012;0.000;0.000;2023-10-09T10:14:12;10.18;;;3.60;;
80647;SDS011;70012;0.000;0.000;2023-10-09T10:16:59;6.53;;;2.85;;
80647;SDS011;70012;0.000;0.000;2023-10-09T10:19:58;7.68;;;3.58;;
80647;SDS011;70012;0.000;0.000;2023-10-09T10:23:16;6.53;;;3.20;;
80647;SDS011;70012;0.000;0.000;2023-10-09T10:25:45;6.70;;;3.38;;
80647;SDS011;70012;0.000;0.000;2023-10-09T10:28:19;8.95;;;3.35;;
80647;SDS011;70012;0.000;0.000;2023-10-09T10:31:06;8.40;;;3.95;;
80647;SDS011;70012;0.000;0.000;2023-10-09T10:36:20;9.48;;;3.78;;
80647;SDS011;70012;0.000;0.000;2023-10-09T10:39:05;8.35;;;4.07;;
80647;SDS011;70012;0.000;0.000;2023-10-09T10:41:55;6.93;;;3.92;;
80647;SDS011;70012;0.000;0.000;2023-10-09T10:44:39;7.68;;;4.18;;
80647;SDS011;70012;0.000;0.000;2023-10-09T10:47:13;8.20;;;4.13;;
80647;SDS011;70012;0.000;0.000;2023-10-09T10:49:50;8.18;;;3.67;;
80647;SDS011;70012;0.000;0.000;2023-10-09T10:52:22;6.05;;;3.80;;
80647;SDS011;70012;0.000;0.000;2023-10-09T10:54:49;8.18;;;3.88;;
80647;SDS011;70012;0.000;0.000;2023-10-09T10:57:50;8.45;;;3.72;;
80647;SDS011;70012;0.000;0.000;2023-10-09T11:00:20;6.53;;;3.83;;
80647;SDS011;70012;0.000;0.000;2023-10-09T11:03:05;8.18;;;3.80;;
80647;SDS011;70012;0.000;0.000;2023-10-09T11:05:45;12.10;;;4.00;;
80647;SDS011;70012;0.000;0.000;2023-10-09T11:08:18;7.95;;;3.72;;
80647;SDS011;70012;0.000;0.000;2023-10-09T11:10:50;9.23;;;3.72;;
80647;SDS011;70012;0.000;0.000;2023-10-09T11:13:21;7.60;;;3.45;;
80647;SDS011;70012;0.000;0.000;2023-10-09T11:15:59;8.88;;;4.00;;
80647;SDS011;70012;0.000;0.000;2023-10-09T11:18:52;9.73;;;3.58;;
80647;SDS011;70012;0.000;0.000;2023-10-09T11:21:22;8.77;;;4.45;;
80647;SDS011;70012;0.000;0.000;2023-10-09T11:23:57;9.93;;;3.83;;
80647;SDS011;70012;0.000;0.000;2023-10-09T11:26:25;6.85;;;3.67;;
80647;SDS011;70012;0.000;0.000;2023-10-09T11:29:10;7.97;;;3.85;;
80647;SDS011;70012;0.000;0.000;2023-10-09T11:34:33;7.70;;;4.57;;
80647;SDS011;70012;0.000;0.000;2023-10-09T11:39:39;14.73;;;4.30;;
80647;SDS011;70012;0.000;0.000;2023-10-09T11:42:24;8.70;;;3.40;;
80647;SDS011;70012;0.000;0.000;2023-10-09T11:45:21;8.65;;;4.00;;
80647;SDS011;70012;0.000;0.000;2023-10-09T11:47:56;8.00;;;3.85;;
80647;SDS011;70012;0.000;0.000;2023-10-09T11:53:10;6.65;;;3.45;;
80647;SDS011;70012;0.000;0.000;2023-10-09T11:55:51;7.95;;;3.92;;
80647;SDS011;70012;0.000;0.000;2023-10-09T11:58:25;12.90;;;4.35;;
80647;SDS011;70012;0.000;0.000;2023-10-09T12:00:57;6.47;;;4.15;;
80647;SDS011;70012;0.000;0.000;2023-10-09T12:03:31;9.93;;;4.40;;
80647;SDS011;70012;0.000;0.000;2023-10-09T12:06:00;13.98;;;4.00;;
80647;SDS011;70012;0.000;0.000;2023-10-09T12:08:32;335.73;;;91.80;;
80647;SDS011;70012;0.000;0.000;2023-10-09T12:10:59;235.85;;;70.95;;
80647;SDS011;70012;0.000;0.000;2023-10-09T12:13:30;263.77;;;75.18;;
80647;SDS011;70012;0.000;0.000;2023-10-09T12:15:57;81.22;;;23.17;;
80647;SDS011;70012;0.000;0.000;2023-10-09T12:18:24;46.30;;;14.00;;
80647;SDS011;70012;0.000;0.000;2023-10-09T12:20:52;59.47;;;16.17;;
80647;SDS011;70012;0.000;0.000;2023-10-09T12:23:28;68.70;;;21.77;;
80647;SDS011;70012;0.000;0.000;2023-10-09T12:25:59;79.82;;;25.42;;
80647;SDS011;70012;0.000;0.000;2023-10-09T12:28:27;31.65;;;10.32;;
80647;SDS011;70012;0.000;0.000;2023-10-09T12:30:54;43.88;;;14.30;;
80647;SDS011;70012;0.000;0.000;2023-10-09T12:33:21;291.02;;;85.45;;
80647;SDS011;70012;0.000;0.000;2023-10-09T12:35:55;321.23;;;93.40;;
80647;SDS011;70012;0.000;0.000;2023-10-09T12:38:27;64.88;;;20.50;;
80647;SDS011;70012;0.000;0.000;2023-10-09T12:41:14;32.67;;;11.20;;
80647;SDS011;70012;0.000;0.000;2023-10-09T12:43:57;32.42;;;8.63;;
80647;SDS011;70012;0.000;0.000;2023-10-09T12:47:19;173.00;;;54.45;;
80647;SDS011;70012;0.000;0.000;2023-10-09T12:49:46;299.38;;;88.95;;
80647;SDS011;70012;0.000;0.000;2023-10-09T12:52:16;309.38;;;102.80;;
80647;SDS011;70012;0.000;0.000;2023-10-09T12:55:18;89.13;;;30.58;;
80647;SDS011;70012;0.000;0.000;2023-10-09T12:57:47;68.15;;;25.17;;
80647;SDS011;70012;0.000;0.000;2023-10-09T13:00:14;26.73;;;8.70;;
80647;SDS011;70012;0.000;0.000;2023-10-09T13:02:51;7.72;;;3.97;;
80647;SDS011;70012;0.000;0.000;2023-10-09T13:05:18;6.80;;;3.80;;
80647;SDS011;70012;0.000;0.000;2023-10-09T13:07:52;8.02;;;3.55;;
80647;SDS011;70012;0.000;0.000;2023-10-09T13:10:19;9.13;;;3.70;;
80647;SDS011;70012;0.000;0.000;2023-10-09T13:12:46;8.38;;;3.85;;
80647;SDS011;70012;0.000;0.000;2023-10-09T13:15:21;7.90;;;3.70;;
80647;SDS011;70012;0.000;0.000;2023-10-09T13:17:48;6.63;;;3.65;;
80647;SDS011;70012;0.000;0.000;2023-10-09T13:20:15;6.70;;;3.50;;
80647;SDS011;70012;0.000;0.000;2023-10-09T13:22:43;7.60;;;3.53;;
80647;SDS011;70012;0.000;0.000;2023-10-09T13:25:10;6.20;;;3.40;;
80647;SDS011;70012;0.000;0.000;2023-10-09T13:30:31;8.02;;;3.88;;
80647;SDS011;70012;0.000;0.000;2023-10-09T13:33:06;7.13;;;3.80;;
80647;SDS011;70012;0.000;0.000;2023-10-09T13:35:35;8.93;;;4.10;;
80647;SDS011;70012;0.000;0.000;2023-10-09T13:38:10;6.03;;;3.25;;
80647;SDS011;70012;0.000;0.000;2023-10-09T13:40:37;7.50;;;3.42;;
80647;SDS011;70012;0.000;0.000;2023-10-09T13:43:04;6.43;;;3.33;;
80647;SDS011;70012;0.000;0.000;2023-10-09T13:45:37;7.35;;;3.70;;
80647;SDS011;70012;0.000;0.000;2023-10-09T13:48:05;7.75;;;3.90;;
80647;SDS011;70012;0.000;0.000;2023-10-09T13:50:32;6.93;;;3.60;;
80647;SDS011;70012;0.000;0.000;2023-10-09T13:52:59;6.15;;;3.58;;
80647;SDS011;70012;0.000;0.000;2023-10-09T13:55:26;6.97;;;3.97;;
80647;SDS011;70012;0.000;0.000;2023-10-09T13:58:10;10.40;;;3.83;;
80647;SDS011;70012;0.000;0.000;2023-10-09T14:00:47;7.05;;;3.38;;
80647;SDS011;70012;0.000;0.000;2023-10-09T14:03:16;7.05;;;3.47;;
80647;SDS011;70012;0.000;0.000;2023-10-09T14:05:46;7.18;;;3.60;;
80647;SDS011;70012;0.000;0.000;2023-10-09T14:08:21;8.85;;;4.15;;
80647;SDS011;70012;0.000;0.000;2023-10-09T14:10:52;7.95;;;4.10;;
80647;SDS011;70012;0.000;0.000;2023-10-09T14:13:21;8.45;;;3.88;;
80647;SDS011;70012;0.000;0.000;2023-10-09T14:15:56;13.57;;;3.85;;
80647;SDS011;70012;0.000;0.000;2023-10-09T14:18:24;7.43;;;3.85;;
80647;SDS011;70012;0.000;0.000;2023-10-09T14:20:51;5.63;;;3.17;;
80647;SDS011;70012;0.000;0.000;2023-10-09T14:23:22;6.03;;;2.90;;
80647;SDS011;70012;0.000;0.000;2023-10-09T14:25:50;6.32;;;3.78;;
80647;SDS011;70012;0.000;0.000;2023-10-09T14:28:20;8.38;;;3.60;;
80647;SDS011;70012;0.000;0.000;2023-10-09T14:30:47;9.45;;;3.83;;
80647;SDS011;70012;0.000;0.000;2023-10-09T14:33:20;10.10;;;3.45;;
80647;SDS011;70012;0.000;0.000;2023-10-09T14:35:49;8.82;;;4.05;;
80647;SDS011;70012;0.000;0.000;2023-10-09T14:38:18;7.03;;;3.67;;
80647;SDS011;70012;0.000;0.000;2023-10-09T14:40:53;6.80;;;3.55;;
80647;SDS011;70012;0.000;0.000;2023-10-09T14:43:26;8.02;;;3.88;;
80647;SDS011;70012;0.000;0.000;2023-10-09T14:46:00;10.65;;;4.13;;
80647;SDS011;70012;0.000;0.000;2023-10-09T14:48:27;6.80;;;3.58;;
80647;SDS011;70012;0.000;0.000;2023-10-09T14:50:55;7.80;;;3.50;;
80647;SDS011;70012;0.000;0.000;2023-10-09T14:53:31;8.98;;;3.80;;
80647;SDS011;70012;0.000;0.000;2023-10-09T14:55:59;7.47;;;3.80;;
80647;SDS011;70012;0.000;0.000;2023-10-09T14:58:36;6.45;;;3.30;;
80647;SDS011;70012;0.000;0.000;2023-10-09T15:01:07;6.47;;;3.38;;
80647;SDS011;70012;0.000;0.000;2023-10-09T15:03:37;8.57;;;4.03;;
80647;SDS011;70012;0.000;0.000;2023-10-09T15:06:04;9.00;;;3.97;;
80647;SDS011;70012;0.000;0.000;2023-10-09T15:08:37;9.25;;;3.60;;
80647;SDS011;70012;0.000;0.000;2023-10-09T15:11:04;7.47;;;3.55;;
80647;SDS011;70012;0.000;0.000;2023-10-09T15:13:32;6.22;;;3.33;;
80647;SDS011;70012;0.000;0.000;2023-10-09T15:15:59;6.57;;;3.92;;
80647;SDS011;70012;0.000;0.000;2023-10-09T15:18:34;7.53;;;3.10;;
80647;SDS011;70012;0.000;0.000;2023-10-09T15:21:09;6.80;;;3.88;;
80647;SDS011;70012;0.000;0.000;2023-10-09T15:23:39;10.90;;;3.85;;
80647;SDS011;70012;0.000;0.000;2023-10-09T15:26:08;5.88;;;3.67;;
80647;SDS011;70012;0.000;0.000;2023-10-09T15:28:37;9.30;;;3.38;;
80647;SDS011;70012;0.000;0.000;2023-10-09T15:31:07;9.52;;;3.70;;
80647;SDS011;70012;0.000;0.000;2023-10-09T15:33:38;7.28;;;3.95;;
80647;SDS011;70012;0.000;0.000;2023-10-09T15:36:10;7.78;;;4.10;;
80647;SDS011;70012;0.000;0.000;2023-10-09T15:38:41;7.13;;;3.45;;
80647;SDS011;70012;0.000;0.000;2023-10-09T15:41:07;7.75;;;3.83;;
80647;SDS011;70012;0.000;0.000;2023-10-09T15:43:35;6.68;;;3.53;;
80647;SDS011;70012;0.000;0.000;2023-10-09T15:46:02;12.48;;;4.15;;
80647;SDS011;70012;0.000;0.000;2023-10-09T15:48:30;7.40;;;3.63;;
80647;SDS011;70012;0.000;0.000;2023-10-09T15:50:59;7.75;;;3.53;;
80647;SDS011;70012;0.000;0.000;2023-10-09T15:53:26;11.90;;;4.40;;
80647;SDS011;70012;0.000;0.000;2023-10-09T15:55:54;9.48;;;3.65;;
80647;SDS011;70012;0.000;0.000;2023-10-09T15:58:24;7.97;;;3.40;;
80647;SDS011;70012;0.000;0.000;2023-10-09T16:00:50;6.38;;;3.67;;
80647;SDS011;70012;0.000;0.000;2023-10-09T16:03:18;8.93;;;4.45;;
80647;SDS011;70012;0.000;0.000;2023-10-09T16:05:46;9.15;;;3.88;;
80647;SDS011;70012;0.000;0.000;2023-10-09T16:08:14;8.32;;;4.32;;
80647;SDS011;70012;0.000;0.000;2023-10-09T16:10:44;9.43;;;4.25;;
80647;SDS011;70012;0.000;0.000;2023-10-09T16:13:12;8.95;;;3.85;;
80647;SDS011;70012;0.000;0.000;2023-10-09T16:15:42;6.72;;;4.00;;
80647;SDS011;70012;0.000;0.000;2023-10-09T16:18:10;10.10;;;3.97;;
80647;SDS011;70012;0.000;0.000;2023-10-09T16:20:37;8.23;;;4.32;;
80647;SDS011;70012;0.000;0.000;2023-10-09T16:23:04;7.28;;;4.18;;
80647;SDS011;70012;0.000;0.000;2023-10-09T16:25:32;8.82;;;3.95;;